createdAt,value
2022-07-27T00:00:56.784Z,99.90
2022-07-27T00:03:24.045Z,99.90
2022-07-27T00:05:51.232Z,99.90
2022-07-27T00:08:20.576Z,99.90
2022-07-27T00:10:48.060Z,99.90
2022-07-27T00:13:15.022Z,99.90
2022-07-27T00:15:42.187Z,99.90
2022-07-27T00:18:09.618Z,99.90
2022-07-27T00:20:37.043Z,99.90
2022-07-27T00:23:04.155Z,99.90
2022-07-27T00:25:31.099Z,99.90
2022-07-27T00:27:58.120Z,99.90
2022-07-27T00:30:26.760Z,99.90
2022-07-27T00:32:53.840Z,99.90
2022-07-27T00:35:21.193Z,99.90
2022-07-27T00:37:48.250Z,99.90
2022-07-27T00:40:15.738Z,99.90
2022-07-27T00:42:42.742Z,99.90
2022-07-27T00:45:10.600Z,99.90
2022-07-27T00:47:37.672Z,99.90
2022-07-27T00:50:06.065Z,99.90
2022-07-27T00:52:34.074Z,99.90
2022-07-27T00:55:01.488Z,99.90
2022-07-27T00:57:28.459Z,99.90
2022-07-27T00:59:55.714Z,99.90
2022-07-27T01:02:23.366Z,99.90
2022-07-27T01:04:53.508Z,99.90
2022-07-27T01:07:22.649Z,99.90
2022-07-27T01:09:56.439Z,99.90
2022-07-27T01:12:28.928Z,99.90
2022-07-27T01:14:58.071Z,99.90
2022-07-27T01:17:27.284Z,99.90
2022-07-27T01:19:54.302Z,99.90
2022-07-27T01:22:21.239Z,99.90
2022-07-27T01:24:50.274Z,99.90
2022-07-27T01:27:17.559Z,99.90
2022-07-27T01:29:44.612Z,99.90
2022-07-27T01:32:11.840Z,99.90
2022-07-27T01:34:38.835Z,99.90
2022-07-27T01:37:06.412Z,99.90
2022-07-27T01:39:34.258Z,99.90
2022-07-27T01:42:01.683Z,99.90
2022-07-27T01:44:29.236Z,99.90
2022-07-27T01:46:56.260Z,99.90
2022-07-27T01:49:23.497Z,99.90
2022-07-27T01:51:50.461Z,99.90
2022-07-27T01:54:17.966Z,99.90
2022-07-27T01:56:44.991Z,99.90
2022-07-27T01:59:16.331Z,99.90
2022-07-27T02:01:44.991Z,99.90
2022-07-27T02:04:12.223Z,99.90
2022-07-27T02:06:39.494Z,99.90
2022-07-27T02:09:06.884Z,99.90
2022-07-27T02:11:52.362Z,99.90
2022-07-27T02:14:21.303Z,99.90
2022-07-27T02:16:49.954Z,99.90
2022-07-27T02:19:18.481Z,99.90
2022-07-27T02:21:45.938Z,99.90
2022-07-27T02:24:13.066Z,99.90
2022-07-27T02:26:40.531Z,99.90
2022-07-27T02:29:07.521Z,99.90
2022-07-27T02:31:34.511Z,99.90
2022-07-27T02:34:01.667Z,99.90
2022-07-27T02:36:29.492Z,99.90
2022-07-27T02:38:58.001Z,99.90
2022-07-27T02:41:25.532Z,99.90
2022-07-27T02:43:52.519Z,99.90
2022-07-27T02:46:19.758Z,99.90
2022-07-27T02:48:46.922Z,99.90
2022-07-27T02:51:15.114Z,99.90
2022-07-27T02:53:42.458Z,99.90
2022-07-27T02:56:09.880Z,99.90
2022-07-27T02:58:37.600Z,99.90
2022-07-27T03:01:05.934Z,99.90
2022-07-27T03:03:36.886Z,99.90
2022-07-27T03:06:07.849Z,99.90
2022-07-27T03:08:36.150Z,99.90
2022-07-27T03:11:03.177Z,99.90
2022-07-27T03:13:30.805Z,99.90
2022-07-27T03:15:58.185Z,99.90
2022-07-27T03:18:25.371Z,99.90
2022-07-27T03:20:52.550Z,99.90
2022-07-27T03:23:20.057Z,99.90
2022-07-27T03:25:46.981Z,99.90
2022-07-27T03:28:14.195Z,99.90
2022-07-27T03:30:41.337Z,99.90
2022-07-27T03:33:08.285Z,99.90
2022-07-27T03:35:35.427Z,99.90
2022-07-27T03:38:02.642Z,99.90
2022-07-27T03:40:32.585Z,99.90
2022-07-27T03:43:00.259Z,99.90
2022-07-27T03:45:28.382Z,99.90
2022-07-27T03:47:55.600Z,99.90
2022-07-27T03:50:23.552Z,99.90
2022-07-27T03:52:51.892Z,99.90
2022-07-27T03:55:22.586Z,99.90
2022-07-27T03:57:50.898Z,99.90
2022-07-27T04:00:18.892Z,99.90
2022-07-27T04:02:46.151Z,99.90
2022-07-27T04:05:13.974Z,99.90
2022-07-27T04:07:41.743Z,99.90
2022-07-27T04:10:10.205Z,99.90
2022-07-27T04:12:38.719Z,99.90
2022-07-27T04:15:07.492Z,99.90
2022-07-27T04:17:54.999Z,99.90
2022-07-27T04:20:21.577Z,99.90
2022-07-27T04:22:48.834Z,99.90
2022-07-27T04:25:15.875Z,99.90
2022-07-27T04:27:42.871Z,99.90
2022-07-27T04:30:10.520Z,99.90
2022-07-27T04:32:38.090Z,99.90
2022-07-27T04:35:07.106Z,99.90
2022-07-27T04:37:35.128Z,99.90
2022-07-27T04:40:02.543Z,99.90
2022-07-27T04:42:29.990Z,99.90
2022-07-27T04:44:57.574Z,99.90
2022-07-27T04:47:24.538Z,99.90
2022-07-27T04:49:51.892Z,99.90
2022-07-27T04:52:19.241Z,99.90
2022-07-27T04:54:54.518Z,99.90
2022-07-27T04:57:23.107Z,99.90
2022-07-27T04:59:50.337Z,99.90
2022-07-27T05:02:17.379Z,99.90
2022-07-27T05:04:44.399Z,99.90
2022-07-27T05:07:11.364Z,99.90
2022-07-27T05:09:38.403Z,99.90
2022-07-27T05:12:05.620Z,99.90
2022-07-27T05:14:32.645Z,99.90
2022-07-27T05:16:59.705Z,99.90
2022-07-27T05:19:40.362Z,99.90
2022-07-27T05:22:09.267Z,99.90
2022-07-27T05:24:38.859Z,99.90
2022-07-27T05:27:06.675Z,99.90
2022-07-27T05:29:33.691Z,99.90
2022-07-27T05:32:00.915Z,99.90
2022-07-27T05:34:27.931Z,99.90
2022-07-27T05:36:54.856Z,99.90
2022-07-27T05:39:22.201Z,99.90
2022-07-27T05:41:49.775Z,99.90
2022-07-27T05:44:16.879Z,99.90
2022-07-27T05:46:43.936Z,99.90
2022-07-27T05:49:12.706Z,99.90
2022-07-27T05:51:40.419Z,99.90
2022-07-27T05:54:08.091Z,99.90
2022-07-27T05:56:35.683Z,99.90
2022-07-27T05:59:07.089Z,99.90
2022-07-27T06:01:34.886Z,99.90
2022-07-27T06:04:01.999Z,99.90
2022-07-27T06:07:01.764Z,99.90
2022-07-27T06:09:28.843Z,99.90
2022-07-27T06:11:55.738Z,99.90
2022-07-27T06:14:22.707Z,99.90
2022-07-27T06:16:49.749Z,99.90
2022-07-27T06:19:16.795Z,99.90
2022-07-27T06:21:43.784Z,99.90
2022-07-27T06:24:11.743Z,99.90
2022-07-27T06:26:38.857Z,99.90
2022-07-27T06:29:10.677Z,99.90
2022-07-27T06:31:38.180Z,99.90
2022-07-27T06:34:06.252Z,99.90
2022-07-27T06:36:39.910Z,99.90
2022-07-27T06:39:07.125Z,99.90
2022-07-27T06:41:34.641Z,99.90
2022-07-27T06:44:01.617Z,99.90
2022-07-27T06:46:28.682Z,99.90
2022-07-27T06:48:56.809Z,99.90
2022-07-27T06:51:24.609Z,99.90
2022-07-27T06:53:53.277Z,99.90
2022-07-27T06:56:21.308Z,99.90
2022-07-27T06:58:49.195Z,99.90
2022-07-27T07:01:16.340Z,99.90
2022-07-27T07:03:44.117Z,99.90
2022-07-27T07:06:11.231Z,99.90
2022-07-27T07:08:38.246Z,99.90
2022-07-27T07:11:05.225Z,99.90
2022-07-27T07:13:37.263Z,99.90
2022-07-27T07:16:05.947Z,99.90
2022-07-27T07:18:32.976Z,99.90
2022-07-27T07:20:59.907Z,99.90
2022-07-27T07:23:26.844Z,99.90
2022-07-27T07:25:53.829Z,99.90
2022-07-27T07:28:22.237Z,99.90
2022-07-27T07:30:49.810Z,99.90
2022-07-27T07:33:16.755Z,99.90
2022-07-27T07:36:12.018Z,99.90
2022-07-27T07:38:31.292Z,99.90
2022-07-27T07:40:58.352Z,99.90
2022-07-27T07:43:25.259Z,99.90
2022-07-27T07:45:52.428Z,99.90
2022-07-27T07:48:21.755Z,99.90
2022-07-27T07:50:51.578Z,99.90
2022-07-27T07:53:23.685Z,99.90
2022-07-27T07:55:56.092Z,99.90
2022-07-27T07:58:23.010Z,99.90
2022-07-27T08:00:50.226Z,99.90
2022-07-27T08:03:17.789Z,99.90
2022-07-27T08:05:45.144Z,99.70
2022-07-27T08:08:12.363Z,99.70
2022-07-27T08:10:39.927Z,99.40
2022-07-27T08:13:07.219Z,99.70
2022-07-27T08:15:36.024Z,99.40
2022-07-27T08:18:07.186Z,98.90
2022-07-27T08:20:34.818Z,98.80
2022-07-27T08:23:03.343Z,98.00
2022-07-27T08:25:31.269Z,97.60
2022-07-27T08:27:58.870Z,95.80
2022-07-27T08:30:26.086Z,96.50
2022-07-27T08:32:59.838Z,95.40
2022-07-27T08:35:28.812Z,94.80
2022-07-27T08:37:56.657Z,94.90
2022-07-27T08:40:42.599Z,94.60
2022-07-27T08:43:18.946Z,95.40
2022-07-27T08:45:57.508Z,93.90
2022-07-27T08:48:27.039Z,93.50
2022-07-27T08:50:55.373Z,93.70
2022-07-27T08:53:23.583Z,92.30
2022-07-27T08:55:51.465Z,92.90
2022-07-27T08:58:18.611Z,92.30
2022-07-27T09:00:50.161Z,91.80
2022-07-27T09:03:21.297Z,92.00
2022-07-27T09:05:55.781Z,90.70
2022-07-27T09:08:31.113Z,91.10
2022-07-27T09:10:59.594Z,91.70
2022-07-27T09:13:29.922Z,91.80
2022-07-27T09:16:17.585Z,89.80
2022-07-27T09:18:47.309Z,89.50
2022-07-27T09:21:26.394Z,89.70
2022-07-27T09:23:59.612Z,87.00
2022-07-27T09:26:33.652Z,86.30
2022-07-27T09:29:15.351Z,86.80
2022-07-27T09:31:47.943Z,80.00
2022-07-27T09:34:30.316Z,80.40
2022-07-27T09:36:59.279Z,72.50
2022-07-27T09:39:28.960Z,73.50
2022-07-27T09:42:03.058Z,75.50
2022-07-27T09:44:43.420Z,72.80
2022-07-27T09:47:23.254Z,71.30
2022-07-27T09:49:50.328Z,73.60
2022-07-27T09:52:27.914Z,73.00
2022-07-27T09:55:02.946Z,70.50
2022-07-27T09:57:30.068Z,71.90
2022-07-27T10:00:13.705Z,71.90
2022-07-27T10:02:42.871Z,68.00
2022-07-27T10:05:10.829Z,68.80
2022-07-27T10:07:38.563Z,68.00
2022-07-27T10:10:06.921Z,66.30
2022-07-27T10:12:33.911Z,68.10
2022-07-27T10:15:00.864Z,66.60
2022-07-27T10:17:28.501Z,65.50
2022-07-27T10:19:58.189Z,64.90
2022-07-27T10:22:58.717Z,65.60
2022-07-27T10:25:28.821Z,65.00
2022-07-27T10:28:16.494Z,65.40
2022-07-27T10:30:46.231Z,63.30
2022-07-27T10:33:54.899Z,60.60
2022-07-27T10:36:27.463Z,61.10
2022-07-27T10:38:58.902Z,59.30
2022-07-27T10:41:31.508Z,61.30
2022-07-27T10:44:21.416Z,59.00
2022-07-27T10:46:57.643Z,58.30
2022-07-27T10:49:44.417Z,55.30
2022-07-27T10:52:56.526Z,56.90
2022-07-27T10:55:32.703Z,56.80
2022-07-27T10:58:14.395Z,53.80
2022-07-27T11:00:54.574Z,54.30
2022-07-27T11:03:26.846Z,56.00
2022-07-27T11:06:31.472Z,56.80
2022-07-27T11:09:27.155Z,55.90
2022-07-27T11:11:42.647Z,56.80
2022-07-27T11:14:11.422Z,55.10
2022-07-27T11:16:54.097Z,54.80
2022-07-27T11:19:23.969Z,55.90
2022-07-27T11:21:52.520Z,53.90
2022-07-27T11:24:19.657Z,55.20
2022-07-27T11:26:52.068Z,54.60
2022-07-27T11:29:22.445Z,53.60
2022-07-27T11:31:57.670Z,53.40
2022-07-27T11:34:34.188Z,53.20
2022-07-27T11:37:03.224Z,54.00
2022-07-27T11:39:59.340Z,54.00
2022-07-27T11:42:23.485Z,53.90
2022-07-27T11:44:53.173Z,53.80
2022-07-27T11:47:24.134Z,55.70
2022-07-27T11:49:52.288Z,55.30
2022-07-27T11:52:19.371Z,57.30
2022-07-27T11:54:52.582Z,55.10
2022-07-27T11:57:20.815Z,57.00
2022-07-27T11:59:48.150Z,57.00
2022-07-27T12:02:22.087Z,55.50
2022-07-27T12:04:52.667Z,55.20
2022-07-27T12:07:30.404Z,56.00
2022-07-27T12:10:04.244Z,56.10
2022-07-27T12:12:33.132Z,56.80
2022-07-27T12:15:44.398Z,55.60
2022-07-27T12:18:02.486Z,55.10
2022-07-27T12:20:34.526Z,54.60
2022-07-27T12:23:09.367Z,53.50
2022-07-27T12:25:38.902Z,54.90
2022-07-27T12:28:12.846Z,54.80
2022-07-27T12:30:52.043Z,55.00
2022-07-27T12:33:35.535Z,54.10
2022-07-27T12:36:06.359Z,53.30
2022-07-27T12:38:45.584Z,51.50
2022-07-27T12:41:38.039Z,51.80
2022-07-27T12:44:12.761Z,52.80
2022-07-27T12:47:02.005Z,49.60
2022-07-27T12:49:40.809Z,49.10
2022-07-27T12:52:11.212Z,48.90
2022-07-27T12:54:38.697Z,47.00
2022-07-27T12:57:05.687Z,47.80
2022-07-27T12:59:32.708Z,45.20
2022-07-27T13:01:59.824Z,44.90
2022-07-27T13:04:26.945Z,47.30
2022-07-27T13:06:54.045Z,47.30
2022-07-27T13:09:20.971Z,45.30
2022-07-27T13:11:48.523Z,48.70
2022-07-27T13:14:15.783Z,48.00
2022-07-27T13:16:42.794Z,46.90
2022-07-27T13:19:10.472Z,47.20
2022-07-27T13:21:37.967Z,47.30
2022-07-27T13:24:07.089Z,46.70
2022-07-27T13:26:34.016Z,46.50
2022-07-27T13:29:00.944Z,46.70
2022-07-27T13:31:28.050Z,49.00
2022-07-27T13:33:55.022Z,48.20
2022-07-27T13:36:22.081Z,48.80
2022-07-27T13:38:49.264Z,48.20
2022-07-27T13:41:16.275Z,48.90
2022-07-27T13:43:43.342Z,46.90
2022-07-27T13:46:10.697Z,45.20
2022-07-27T13:48:37.828Z,45.20
2022-07-27T13:51:04.928Z,45.10
2022-07-27T13:53:31.897Z,44.50
2022-07-27T13:56:01.408Z,43.70
2022-07-27T13:58:29.921Z,43.40
2022-07-27T14:00:56.976Z,43.20
2022-07-27T14:03:24.059Z,44.40
2022-07-27T14:05:53.373Z,46.20
2022-07-27T14:08:21.960Z,46.40
2022-07-27T14:10:49.328Z,44.40
2022-07-27T14:13:21.530Z,43.40
2022-07-27T14:15:54.930Z,41.40
2022-07-27T14:18:30.757Z,44.40
2022-07-27T14:21:01.169Z,45.50
2022-07-27T14:23:29.458Z,45.20
2022-07-27T14:25:59.141Z,47.80
2022-07-27T14:28:28.154Z,47.10
2022-07-27T14:30:56.737Z,45.90
2022-07-27T14:33:26.311Z,45.20
2022-07-27T14:36:01.149Z,45.40
2022-07-27T14:38:30.641Z,47.60
2022-07-27T14:40:59.871Z,45.70
2022-07-27T14:43:28.106Z,47.10
2022-07-27T14:45:57.041Z,46.40
2022-07-27T14:48:42.235Z,47.60
2022-07-27T14:51:11.200Z,46.50
2022-07-27T14:53:38.134Z,46.90
2022-07-27T14:56:05.294Z,46.00
2022-07-27T14:58:32.323Z,46.80
2022-07-27T15:00:59.502Z,46.50
2022-07-27T15:03:26.538Z,47.70
2022-07-27T15:05:53.572Z,49.50
2022-07-27T15:08:21.297Z,48.00
2022-07-27T15:10:48.990Z,48.20
2022-07-27T15:13:16.851Z,48.60
2022-07-27T15:15:44.333Z,49.50
2022-07-27T15:18:11.383Z,49.90
2022-07-27T15:20:38.374Z,50.90
2022-07-27T15:23:06.592Z,48.90
2022-07-27T15:25:33.986Z,47.90
2022-07-27T15:28:01.106Z,46.70
2022-07-27T15:30:28.245Z,45.70
2022-07-27T15:32:55.257Z,45.40
2022-07-27T15:35:22.437Z,42.40
2022-07-27T15:37:53.896Z,42.90
2022-07-27T15:40:38.666Z,41.10
2022-07-27T15:43:10.743Z,41.50
2022-07-27T15:45:44.147Z,43.00
2022-07-27T15:48:12.693Z,41.30
2022-07-27T15:50:43.694Z,43.30
2022-07-27T15:53:12.487Z,42.40
2022-07-27T15:55:39.521Z,42.80
2022-07-27T15:58:07.425Z,47.20
2022-07-27T16:00:40.793Z,46.90
2022-07-27T16:03:12.812Z,45.80
2022-07-27T16:05:43.383Z,47.80
2022-07-27T16:08:11.422Z,48.40
2022-07-27T16:10:40.028Z,47.40
2022-07-27T16:13:10.010Z,48.30
2022-07-27T16:16:09.499Z,49.60
2022-07-27T16:18:38.998Z,49.80
2022-07-27T16:21:07.250Z,49.80
2022-07-27T16:23:34.436Z,49.00
2022-07-27T16:26:04.402Z,50.90
2022-07-27T16:28:34.812Z,50.90
2022-07-27T16:31:02.735Z,50.30
2022-07-27T16:33:30.374Z,52.10
2022-07-27T16:35:57.934Z,50.20
2022-07-27T16:38:25.617Z,51.30
2022-07-27T16:40:52.659Z,52.40
2022-07-27T16:43:19.707Z,52.90
2022-07-27T16:45:46.719Z,53.40
2022-07-27T16:48:13.687Z,52.90
2022-07-27T16:50:40.672Z,53.80
2022-07-27T16:53:07.671Z,53.50
2022-07-27T16:55:34.685Z,55.20
2022-07-27T16:58:01.724Z,53.40
2022-07-27T17:00:28.806Z,53.40
2022-07-27T17:02:55.915Z,52.30
2022-07-27T17:05:23.152Z,55.00
2022-07-27T17:07:52.403Z,53.20
2022-07-27T17:10:26.956Z,53.40
2022-07-27T17:12:55.689Z,54.90
2022-07-27T17:15:24.839Z,54.50
2022-07-27T17:17:52.109Z,53.20
2022-07-27T17:20:35.066Z,54.70
2022-07-27T17:23:04.156Z,52.80
2022-07-27T17:25:31.208Z,53.30
2022-07-27T17:27:58.496Z,54.30
2022-07-27T17:30:25.471Z,53.30
2022-07-27T17:32:53.410Z,53.50
2022-07-27T17:35:20.493Z,53.40
2022-07-27T17:38:05.494Z,53.60
2022-07-27T17:40:34.044Z,54.40
2022-07-27T17:43:01.076Z,54.20
2022-07-27T17:45:28.041Z,54.50
2022-07-27T17:47:54.998Z,54.20
2022-07-27T17:50:22.603Z,54.50
2022-07-27T17:52:49.698Z,55.00
2022-07-27T17:55:17.187Z,54.80
2022-07-27T17:57:45.358Z,55.00
2022-07-27T18:00:13.305Z,55.40
2022-07-27T18:02:40.260Z,55.70
2022-07-27T18:05:07.688Z,55.70
2022-07-27T18:07:37.810Z,56.10
2022-07-27T18:10:08.369Z,56.30
2022-07-27T18:12:36.760Z,56.00
2022-07-27T18:15:23.293Z,56.90
2022-07-27T18:17:50.420Z,56.30
2022-07-27T18:20:17.380Z,56.40
2022-07-27T18:22:44.532Z,56.70
2022-07-27T18:25:11.707Z,57.30
2022-07-27T18:27:38.948Z,57.00
2022-07-27T18:30:06.805Z,57.30
2022-07-27T18:32:33.758Z,57.30
2022-07-27T18:35:01.824Z,56.90
2022-07-27T18:37:29.821Z,58.30
2022-07-27T18:39:56.957Z,58.40
2022-07-27T18:42:24.080Z,59.10
2022-07-27T18:44:51.177Z,60.00
2022-07-27T18:47:18.071Z,61.10
2022-07-27T18:49:45.480Z,60.70
2022-07-27T18:52:12.474Z,62.00
2022-07-27T18:54:39.746Z,60.20
2022-07-27T18:57:07.044Z,59.60
2022-07-27T18:59:38.130Z,59.60
2022-07-27T19:02:07.953Z,60.60
2022-07-27T19:04:35.005Z,61.50
2022-07-27T19:07:02.094Z,61.60
2022-07-27T19:09:29.143Z,61.40
2022-07-27T19:11:56.071Z,63.00
2022-07-27T19:14:23.107Z,62.90
2022-07-27T19:16:51.499Z,63.60
2022-07-27T19:19:23.100Z,64.50
2022-07-27T19:21:50.670Z,64.50
2022-07-27T19:24:18.247Z,66.20
2022-07-27T19:26:45.202Z,66.30
2022-07-27T19:29:13.382Z,66.90
2022-07-27T19:31:40.732Z,67.00
2022-07-27T19:34:07.860Z,67.70
2022-07-27T19:36:35.086Z,69.00
2022-07-27T19:39:07.598Z,68.30
2022-07-27T19:41:35.551Z,68.40
2022-07-27T19:44:04.179Z,70.00
2022-07-27T19:46:31.278Z,69.40
2022-07-27T19:48:58.503Z,69.60
2022-07-27T19:51:25.508Z,70.10
2022-07-27T19:53:52.507Z,71.10
2022-07-27T19:56:21.963Z,71.50
2022-07-27T19:58:48.936Z,73.70
2022-07-27T20:01:16.241Z,73.80
2022-07-27T20:03:52.220Z,74.30
2022-07-27T20:06:23.823Z,74.70
2022-07-27T20:08:50.896Z,75.10
2022-07-27T20:11:18.015Z,75.50
2022-07-27T20:13:44.917Z,76.10
2022-07-27T20:16:12.737Z,77.00
2022-07-27T20:18:39.723Z,77.20
2022-07-27T20:21:22.632Z,77.40
2022-07-27T20:23:52.360Z,78.00
2022-07-27T20:26:20.651Z,78.80
2022-07-27T20:28:49.739Z,79.40
2022-07-27T20:31:17.198Z,80.70
2022-07-27T20:33:44.236Z,80.40
2022-07-27T20:36:11.301Z,80.80
2022-07-27T20:38:38.480Z,82.10
2022-07-27T20:41:05.484Z,82.10
2022-07-27T20:43:32.899Z,81.80
2022-07-27T20:45:59.955Z,84.90
2022-07-27T20:48:27.206Z,82.40
2022-07-27T20:50:54.204Z,82.90
2022-07-27T20:53:21.315Z,83.30
2022-07-27T20:55:48.677Z,83.90
2022-07-27T20:58:15.694Z,84.10
2022-07-27T21:00:42.898Z,84.20
2022-07-27T21:03:10.021Z,84.80
2022-07-27T21:05:36.965Z,85.80
2022-07-27T21:08:04.093Z,86.50
2022-07-27T21:10:31.144Z,87.00
2022-07-27T21:12:58.536Z,88.20
2022-07-27T21:15:33.740Z,88.60
2022-07-27T21:18:03.159Z,89.30
2022-07-27T21:20:30.345Z,89.80
2022-07-27T21:23:16.111Z,90.00
2022-07-27T21:25:44.170Z,90.40
2022-07-27T21:28:16.962Z,90.50
2022-07-27T21:30:45.942Z,90.70
2022-07-27T21:33:13.974Z,90.90
2022-07-27T21:35:41.013Z,91.40
2022-07-27T21:38:08.140Z,91.70
2022-07-27T21:40:35.155Z,91.70
2022-07-27T21:43:02.129Z,92.10
2022-07-27T21:45:29.153Z,92.10
2022-07-27T21:47:56.213Z,92.10
2022-07-27T21:50:23.395Z,92.30
2022-07-27T21:52:52.298Z,92.60
2022-07-27T21:55:23.313Z,92.70
2022-07-27T21:57:51.542Z,92.90
2022-07-27T22:00:24.192Z,92.90
2022-07-27T22:02:52.419Z,93.10
2022-07-27T22:05:21.649Z,93.40
2022-07-27T22:07:52.158Z,93.80
2022-07-27T22:10:19.585Z,94.10
2022-07-27T22:12:46.695Z,94.10
2022-07-27T22:15:13.621Z,94.30
2022-07-27T22:17:46.697Z,94.50
2022-07-27T22:20:18.763Z,94.40
2022-07-27T22:22:46.914Z,94.70
2022-07-27T22:25:14.706Z,95.10
2022-07-27T22:27:42.119Z,95.40
2022-07-27T22:30:09.390Z,95.30
2022-07-27T22:32:36.650Z,95.20
2022-07-27T22:35:05.102Z,95.50
2022-07-27T22:37:32.032Z,95.20
2022-07-27T22:39:59.153Z,95.40
2022-07-27T22:42:26.076Z,95.50
2022-07-27T22:44:53.270Z,95.80
2022-07-27T22:47:20.251Z,95.90
2022-07-27T22:49:47.405Z,96.20
2022-07-27T22:52:14.436Z,96.40
2022-07-27T22:54:41.994Z,96.40
2022-07-27T22:57:09.166Z,96.40
2022-07-27T22:59:37.526Z,96.30
2022-07-27T23:02:05.804Z,96.40
2022-07-27T23:04:33.089Z,96.40
2022-07-27T23:07:00.495Z,96.40
2022-07-27T23:09:27.382Z,96.40
2022-07-27T23:11:54.366Z,96.50
2022-07-27T23:14:21.400Z,96.70
2022-07-27T23:16:48.397Z,97.00
2022-07-27T23:19:15.408Z,97.00
2022-07-27T23:21:42.494Z,96.80
2022-07-27T23:24:11.456Z,97.00
2022-07-27T23:26:40.567Z,96.80
2022-07-27T23:29:07.921Z,97.00
2022-07-27T23:31:35.523Z,97.10
2022-07-27T23:34:02.456Z,97.20
2022-07-27T23:36:29.340Z,97.10
2022-07-27T23:38:56.546Z,97.40
2022-07-27T23:41:23.491Z,96.70
2022-07-27T23:43:50.351Z,97.70
2022-07-27T23:46:17.488Z,97.80
2022-07-27T23:48:44.412Z,98.00
2022-07-27T23:51:18.086Z,98.60
2022-07-27T23:53:45.870Z,98.70
2022-07-27T23:56:12.967Z,99.00
2022-07-27T23:58:40.010Z,98.90
